createdAt,value
2022-11-21T00:01:22.074Z,7.20
2022-11-21T00:03:50.868Z,7.20
2022-11-21T00:06:19.581Z,7.20
2022-11-21T00:08:47.987Z,7.20
2022-11-21T00:11:16.528Z,7.20
2022-11-21T00:13:45.205Z,7.10
2022-11-21T00:16:16.582Z,7.10
2022-11-21T00:18:45.281Z,7.10
2022-11-21T00:21:16.047Z,7.10
2022-11-21T00:23:44.165Z,7.20
2022-11-21T00:26:13.889Z,7.10
2022-11-21T00:28:42.520Z,7.10
2022-11-21T00:31:20.593Z,7.10
2022-11-21T00:33:48.791Z,7.10
2022-11-21T00:36:17.094Z,7.10
2022-11-21T00:38:45.222Z,7.10
2022-11-21T00:41:13.290Z,7.10
2022-11-21T00:43:41.334Z,7.00
2022-11-21T00:46:09.370Z,6.90
2022-11-21T00:48:38.792Z,6.80
2022-11-21T00:51:06.904Z,6.70
2022-11-21T00:53:34.907Z,6.50
2022-11-21T00:56:03.161Z,6.50
2022-11-21T00:58:31.178Z,6.50
2022-11-21T01:01:10.883Z,6.50
2022-11-21T01:03:40.694Z,6.50
2022-11-21T01:06:10.311Z,6.50
2022-11-21T01:08:39.924Z,6.50
2022-11-21T01:11:09.512Z,6.40
2022-11-21T01:13:38.362Z,6.30
2022-11-21T01:16:07.980Z,6.20
2022-11-21T01:18:36.625Z,6.20
2022-11-21T01:21:08.151Z,6.10
2022-11-21T01:23:36.306Z,6.00
2022-11-21T01:26:05.044Z,6.00
2022-11-21T01:28:33.582Z,5.90
2022-11-21T01:31:08.792Z,5.90
2022-11-21T01:33:37.712Z,5.80
2022-11-21T01:36:22.973Z,5.70
2022-11-21T01:38:52.849Z,5.70
2022-11-21T01:41:23.267Z,5.70
2022-11-21T01:43:51.822Z,5.60
2022-11-21T01:46:21.740Z,5.60
2022-11-21T01:48:55.157Z,5.50
2022-11-21T01:51:28.719Z,5.50
2022-11-21T01:54:02.409Z,5.40
2022-11-21T01:56:35.200Z,5.40
2022-11-21T01:59:06.248Z,5.40
2022-11-21T02:01:36.125Z,5.40
2022-11-21T02:04:05.221Z,5.40
2022-11-21T02:06:37.820Z,5.40
2022-11-21T02:09:06.993Z,5.30
2022-11-21T02:11:39.338Z,5.30
2022-11-21T02:14:07.968Z,5.30
2022-11-21T02:16:36.990Z,5.20
2022-11-21T02:19:06.077Z,5.30
2022-11-21T02:21:45.669Z,5.30
2022-11-21T02:24:18.266Z,5.20
2022-11-21T02:26:49.408Z,5.30
2022-11-21T02:29:17.973Z,5.30
2022-11-21T02:31:46.328Z,5.30
2022-11-21T02:34:14.553Z,5.30
2022-11-21T02:36:44.964Z,5.30
2022-11-21T02:39:17.296Z,5.30
2022-11-21T02:41:53.001Z,5.20
2022-11-21T02:44:27.451Z,5.20
2022-11-21T02:46:55.710Z,5.20
2022-11-21T02:49:31.525Z,5.30
2022-11-21T02:51:59.720Z,5.20
2022-11-21T02:54:28.043Z,5.20
2022-11-21T02:56:57.945Z,5.20
2022-11-21T02:59:26.205Z,5.30
2022-11-21T03:01:54.264Z,5.30
2022-11-21T03:04:22.352Z,5.30
2022-11-21T03:06:50.384Z,5.20
2022-11-21T03:09:18.393Z,5.30
2022-11-21T03:11:46.450Z,5.20
2022-11-21T03:14:15.872Z,5.20
2022-11-21T03:16:43.879Z,5.30
2022-11-21T03:19:11.990Z,5.20
2022-11-21T03:21:40.096Z,5.20
2022-11-21T03:24:09.101Z,5.30
2022-11-21T03:26:37.329Z,5.30
2022-11-21T03:29:05.351Z,5.30
2022-11-21T03:31:34.792Z,5.30
2022-11-21T03:34:02.995Z,5.30
2022-11-21T03:36:31.043Z,5.20
2022-11-21T03:38:59.492Z,5.20
2022-11-21T03:41:31.297Z,5.20
2022-11-21T03:44:00.898Z,5.20
2022-11-21T03:46:29.905Z,5.20
2022-11-21T03:49:00.135Z,5.30
2022-11-21T03:51:28.593Z,5.20
2022-11-21T03:53:56.776Z,5.20
2022-11-21T03:56:25.209Z,5.30
2022-11-21T03:58:53.586Z,5.30
2022-11-21T04:01:22.481Z,5.30
2022-11-21T04:03:51.202Z,5.30
2022-11-21T04:06:23.234Z,5.20
2022-11-21T04:08:51.935Z,5.20
2022-11-21T04:11:22.145Z,5.20
2022-11-21T04:13:50.197Z,5.20
2022-11-21T04:16:18.301Z,5.10
2022-11-21T04:18:46.360Z,5.10
2022-11-21T04:21:14.584Z,5.10
2022-11-21T04:23:46.918Z,5.10
2022-11-21T04:26:15.136Z,5.10
2022-11-21T04:28:43.170Z,5.10
2022-11-21T04:31:11.649Z,5.10
2022-11-21T04:33:40.006Z,5.10
2022-11-21T04:36:09.837Z,5.10
2022-11-21T04:38:38.274Z,5.10
2022-11-21T04:41:07.903Z,5.10
2022-11-21T04:43:36.540Z,5.00
2022-11-21T04:46:04.830Z,5.00
2022-11-21T04:48:33.676Z,5.00
2022-11-21T04:51:01.887Z,5.00
2022-11-21T04:53:30.115Z,5.00
2022-11-21T04:55:58.373Z,5.00
2022-11-21T04:58:28.144Z,5.00
2022-11-21T05:00:56.287Z,5.00
2022-11-21T05:03:24.594Z,5.00
2022-11-21T05:05:52.778Z,4.90
2022-11-21T05:08:20.859Z,5.10
2022-11-21T05:11:21.042Z,5.00
2022-11-21T05:13:50.516Z,5.00
2022-11-21T05:16:18.532Z,5.00
2022-11-21T05:18:46.511Z,4.90
2022-11-21T05:21:14.569Z,4.90
2022-11-21T05:23:42.596Z,4.90
2022-11-21T05:26:10.709Z,4.90
2022-11-21T05:28:38.975Z,4.90
2022-11-21T05:31:08.453Z,5.00
2022-11-21T05:33:36.485Z,5.00
2022-11-21T05:36:04.877Z,4.90
2022-11-21T05:38:33.135Z,5.00
2022-11-21T05:41:01.213Z,5.00
2022-11-21T05:43:46.619Z,5.00
2022-11-21T05:46:18.518Z,5.00
2022-11-21T05:48:47.204Z,5.00
2022-11-21T05:51:15.887Z,5.10
2022-11-21T05:53:44.508Z,5.00
2022-11-21T05:56:14.376Z,5.00
2022-11-21T05:58:42.875Z,5.00
2022-11-21T06:01:14.676Z,4.90
2022-11-21T06:03:43.524Z,5.00
2022-11-21T06:06:13.440Z,5.00
2022-11-21T06:08:43.772Z,4.90
2022-11-21T06:11:14.441Z,5.00
2022-11-21T06:13:43.159Z,5.00
2022-11-21T06:16:13.310Z,5.20
2022-11-21T06:18:44.928Z,5.10
2022-11-21T06:21:15.795Z,5.00
2022-11-21T06:23:44.739Z,5.10
2022-11-21T06:26:14.859Z,5.10
2022-11-21T06:28:44.204Z,5.10
2022-11-21T06:31:14.589Z,5.20
2022-11-21T06:33:45.583Z,5.30
2022-11-21T06:36:16.013Z,5.30
2022-11-21T06:38:44.543Z,5.20
2022-11-21T06:41:14.741Z,5.30
2022-11-21T06:43:43.410Z,5.30
2022-11-21T06:46:12.099Z,5.30
2022-11-21T06:48:40.686Z,5.20
2022-11-21T06:51:14.251Z,5.30
2022-11-21T06:53:42.381Z,5.30
2022-11-21T06:56:10.904Z,5.30
2022-11-21T06:58:39.150Z,5.30
2022-11-21T07:01:07.822Z,5.30
2022-11-21T07:03:36.403Z,5.40
2022-11-21T07:06:04.877Z,5.30
2022-11-21T07:08:36.371Z,5.40
2022-11-21T07:13:54.209Z,5.50
2022-11-21T07:16:22.236Z,5.50
2022-11-21T07:18:50.330Z,5.50
2022-11-21T07:21:18.397Z,5.50
2022-11-21T07:23:48.857Z,5.50
2022-11-21T07:26:16.924Z,5.50
2022-11-21T07:28:45.038Z,5.60
2022-11-21T07:31:14.083Z,5.70
2022-11-21T07:33:45.644Z,5.70
2022-11-21T07:36:14.075Z,5.80
2022-11-21T07:38:42.477Z,5.80
2022-11-21T07:41:12.363Z,5.80
2022-11-21T07:43:40.469Z,5.80
2022-11-21T07:46:08.621Z,5.90
2022-11-21T07:48:36.709Z,6.00
2022-11-21T07:51:06.519Z,6.10
2022-11-21T07:53:34.789Z,6.00
2022-11-21T07:56:03.159Z,6.10
2022-11-21T07:58:32.770Z,6.20
2022-11-21T08:01:04.702Z,6.10
2022-11-21T08:03:32.853Z,6.20
2022-11-21T08:06:02.992Z,6.20
2022-11-21T08:08:31.639Z,6.20
2022-11-21T08:10:59.835Z,6.20
2022-11-21T08:13:32.337Z,6.30
2022-11-21T08:16:00.708Z,6.30
2022-11-21T08:18:28.712Z,6.30
2022-11-21T08:20:57.094Z,6.40
2022-11-21T08:23:25.316Z,6.40
2022-11-21T08:25:53.357Z,6.40
2022-11-21T08:28:21.452Z,6.40
2022-11-21T08:30:50.974Z,6.40
2022-11-21T08:33:19.039Z,6.50
2022-11-21T08:35:47.101Z,6.40
2022-11-21T08:38:15.181Z,6.40
2022-11-21T08:40:43.236Z,6.40
2022-11-21T08:43:11.344Z,6.40
2022-11-21T08:45:39.777Z,6.40
2022-11-21T08:48:12.562Z,6.50
2022-11-21T08:50:41.163Z,6.60
2022-11-21T08:53:09.555Z,6.50
2022-11-21T08:55:37.668Z,6.60
2022-11-21T08:58:05.712Z,6.60
2022-11-21T09:00:33.781Z,6.70
2022-11-21T09:03:05.904Z,6.80
2022-11-21T09:05:35.683Z,7.10
2022-11-21T09:08:03.778Z,7.80
2022-11-21T09:10:32.100Z,7.90
2022-11-21T09:13:00.514Z,8.20
2022-11-21T09:15:46.122Z,8.70
2022-11-21T09:18:14.287Z,8.90
2022-11-21T09:20:45.032Z,8.50
2022-11-21T09:23:15.100Z,9.80
2022-11-21T09:25:43.666Z,11.90
2022-11-21T09:28:13.809Z,11.40
2022-11-21T09:30:42.823Z,11.30
2022-11-21T09:33:13.193Z,9.70
2022-11-21T09:35:42.896Z,9.00
2022-11-21T09:38:11.736Z,9.10
2022-11-21T09:40:44.387Z,8.60
2022-11-21T09:43:41.172Z,8.40
2022-11-21T09:46:14.090Z,8.20
2022-11-21T09:48:52.406Z,8.20
2022-11-21T09:51:23.552Z,8.30
2022-11-21T09:53:58.045Z,8.10
2022-11-21T09:56:28.720Z,7.90
2022-11-21T09:59:11.651Z,7.80
2022-11-21T10:01:39.880Z,7.70
2022-11-21T10:04:08.024Z,7.90
2022-11-21T10:06:47.813Z,7.70
2022-11-21T10:09:26.924Z,8.00
2022-11-21T10:12:20.686Z,8.70
2022-11-21T10:14:57.448Z,9.70
2022-11-21T10:17:36.782Z,9.50
2022-11-21T10:20:16.230Z,9.20
2022-11-21T10:23:23.614Z,9.70
2022-11-21T10:25:58.152Z,9.50
2022-11-21T10:28:34.921Z,9.40
2022-11-21T10:31:05.087Z,9.60
2022-11-21T10:33:34.402Z,9.70
2022-11-21T10:36:08.292Z,10.50
2022-11-21T10:38:40.150Z,10.10
2022-11-21T10:41:18.309Z,11.80
2022-11-21T10:44:22.182Z,13.00
2022-11-21T10:46:56.960Z,13.20
2022-11-21T10:49:26.453Z,13.80
2022-11-21T10:52:01.685Z,13.00
2022-11-21T10:54:36.393Z,12.50
2022-11-21T10:57:14.721Z,12.50
2022-11-21T10:59:42.979Z,11.50
2022-11-21T11:02:25.671Z,11.80
2022-11-21T11:05:19.444Z,11.40
2022-11-21T11:08:01.749Z,11.40
2022-11-21T11:10:31.566Z,11.30
2022-11-21T11:13:44.422Z,11.20
2022-11-21T11:16:15.466Z,10.60
2022-11-21T11:18:58.163Z,10.40
2022-11-21T11:21:28.547Z,10.60
2022-11-21T11:24:08.167Z,10.90
2022-11-21T11:26:51.090Z,11.10
2022-11-21T11:29:22.244Z,11.60
2022-11-21T11:31:56.268Z,12.10
2022-11-21T11:34:27.071Z,12.00
2022-11-21T11:37:12.215Z,11.60
2022-11-21T11:39:48.123Z,11.90
2022-11-21T11:43:05.857Z,12.40
2022-11-21T11:46:09.932Z,11.80
2022-11-21T11:48:56.640Z,11.50
2022-11-21T11:51:34.036Z,11.70
2022-11-21T11:54:07.736Z,13.50
2022-11-21T11:56:38.496Z,14.50
2022-11-21T11:59:14.119Z,14.20
2022-11-21T12:01:49.618Z,12.90
2022-11-21T12:04:19.945Z,11.80
2022-11-21T12:07:52.761Z,12.10
2022-11-21T12:09:50.723Z,11.80
2022-11-21T12:12:28.186Z,11.10
2022-11-21T12:15:23.645Z,11.00
2022-11-21T12:18:12.346Z,12.30
2022-11-21T12:20:50.068Z,12.90
2022-11-21T12:23:18.968Z,13.10
2022-11-21T12:25:54.879Z,12.50
2022-11-21T12:28:31.794Z,12.30
2022-11-21T12:31:09.454Z,12.00
2022-11-21T12:33:47.254Z,11.70
2022-11-21T12:36:23.433Z,11.90
2022-11-21T12:39:16.230Z,12.10
2022-11-21T12:42:12.067Z,11.30
2022-11-21T12:45:00.962Z,10.80
2022-11-21T12:48:04.599Z,11.10
2022-11-21T12:51:00.547Z,11.20
2022-11-21T12:53:56.217Z,10.60
2022-11-21T12:56:33.988Z,10.40
2022-11-21T12:59:04.549Z,10.50
2022-11-21T13:01:41.244Z,10.60
2022-11-21T13:04:15.218Z,10.70
2022-11-21T13:06:48.134Z,10.50
2022-11-21T13:09:20.009Z,10.50
2022-11-21T13:12:00.126Z,10.20
2022-11-21T13:14:37.176Z,10.10
2022-11-21T13:17:22.181Z,10.00
2022-11-21T13:19:55.712Z,9.70
2022-11-21T13:22:54.018Z,9.50
2022-11-21T13:25:47.352Z,9.60
2022-11-21T13:28:39.676Z,9.50
2022-11-21T13:31:30.210Z,9.40
2022-11-21T13:33:59.166Z,9.40
2022-11-21T13:36:43.134Z,9.40
2022-11-21T13:39:37.379Z,9.40
2022-11-21T13:42:29.666Z,9.30
2022-11-21T13:44:58.081Z,9.30
2022-11-21T13:48:13.349Z,9.30
2022-11-21T13:51:07.436Z,9.20
2022-11-21T13:54:11.243Z,9.30
2022-11-21T13:56:57.035Z,9.20
2022-11-21T13:59:41.876Z,9.20
2022-11-21T14:02:45.705Z,9.10
2022-11-21T14:05:44.097Z,9.10
2022-11-21T14:08:19.965Z,9.10
2022-11-21T14:10:49.512Z,9.00
2022-11-21T14:13:35.521Z,9.00
2022-11-21T14:16:19.635Z,8.90
2022-11-21T14:18:48.573Z,8.80
2022-11-21T14:21:22.881Z,8.80
2022-11-21T14:23:51.092Z,8.70
2022-11-21T14:26:21.412Z,8.70
2022-11-21T14:28:52.209Z,8.60
2022-11-21T14:31:20.455Z,8.60
2022-11-21T14:33:49.471Z,8.50
2022-11-21T14:36:20.250Z,8.40
2022-11-21T14:39:07.629Z,8.30
2022-11-21T14:41:40.203Z,8.30
2022-11-21T14:44:18.966Z,8.30
2022-11-21T14:46:47.705Z,8.20
2022-11-21T14:49:30.146Z,8.20
2022-11-21T14:52:09.278Z,8.20
2022-11-21T14:55:13.559Z,8.10
2022-11-21T14:57:39.838Z,8.00
2022-11-21T15:00:43.285Z,8.00
2022-11-21T15:03:04.934Z,7.90
2022-11-21T15:11:13.044Z,7.80
2022-11-21T15:16:31.755Z,7.80
2022-11-21T15:18:59.840Z,7.80
2022-11-21T15:21:27.882Z,7.70
2022-11-21T15:23:56.973Z,7.60
2022-11-21T15:26:30.564Z,7.70
2022-11-21T15:29:00.130Z,7.70
2022-11-21T15:31:28.764Z,7.60
2022-11-21T15:37:04.836Z,7.70
2022-11-21T15:39:34.514Z,7.70
2022-11-21T15:42:45.071Z,7.60
2022-11-21T15:45:26.776Z,7.70
2022-11-21T15:47:56.617Z,7.60
2022-11-21T15:50:26.567Z,7.60
2022-11-21T15:52:54.914Z,7.60
2022-11-21T15:55:25.792Z,7.60
2022-11-21T15:57:54.082Z,7.60
2022-11-21T16:00:22.241Z,7.50
2022-11-21T16:02:50.482Z,7.60
2022-11-21T16:05:18.578Z,7.50
2022-11-21T16:07:48.609Z,7.50
2022-11-21T16:10:25.885Z,7.60
2022-11-21T16:12:55.605Z,7.60
2022-11-21T16:18:20.320Z,7.70
2022-11-21T16:20:48.438Z,7.60
2022-11-21T16:23:18.126Z,7.60
2022-11-21T16:25:56.215Z,7.60
2022-11-21T16:28:24.433Z,7.60
2022-11-21T16:30:52.797Z,7.50
2022-11-21T16:33:25.891Z,7.60
2022-11-21T16:35:56.912Z,7.60
2022-11-21T16:38:27.815Z,7.60
2022-11-21T16:40:56.892Z,7.50
2022-11-21T16:43:25.289Z,7.60
2022-11-21T16:45:53.738Z,7.50
2022-11-21T16:48:22.757Z,7.40
2022-11-21T16:50:51.136Z,7.50
2022-11-21T16:53:19.155Z,7.50
2022-11-21T16:55:48.898Z,7.50
2022-11-21T16:58:16.952Z,7.50
2022-11-21T17:00:45.132Z,7.50
2022-11-21T17:03:13.191Z,7.50
2022-11-21T17:05:41.206Z,7.50
2022-11-21T17:08:09.381Z,7.50
2022-11-21T17:10:37.533Z,7.40
2022-11-21T17:13:07.489Z,7.40
2022-11-21T17:15:35.571Z,7.50
2022-11-21T17:18:03.584Z,7.40
2022-11-21T17:20:31.731Z,7.40
2022-11-21T17:22:59.783Z,7.40
2022-11-21T17:25:28.371Z,7.40
2022-11-21T17:27:56.885Z,7.40
2022-11-21T17:30:27.103Z,7.50
2022-11-21T17:32:55.112Z,7.40
2022-11-21T17:35:23.387Z,7.40
2022-11-21T17:37:51.640Z,7.40
2022-11-21T17:40:19.717Z,7.40
2022-11-21T17:42:47.824Z,7.40
2022-11-21T17:45:15.957Z,7.30
2022-11-21T17:47:47.038Z,7.30
2022-11-21T17:50:15.446Z,7.30
2022-11-21T17:52:43.526Z,7.30
2022-11-21T17:55:11.565Z,7.30
2022-11-21T17:57:39.643Z,7.30
2022-11-21T18:00:08.857Z,7.30
2022-11-21T18:02:37.105Z,7.30
2022-11-21T18:05:07.170Z,7.30
2022-11-21T18:07:35.619Z,7.20
2022-11-21T18:10:27.589Z,7.20
2022-11-21T18:12:52.741Z,7.10
2022-11-21T18:15:24.766Z,7.10
2022-11-21T18:17:52.790Z,7.20
2022-11-21T18:20:23.992Z,7.20
2022-11-21T18:22:53.607Z,7.30
2022-11-21T18:25:21.746Z,7.20
2022-11-21T18:27:54.499Z,7.30
2022-11-21T18:30:23.027Z,7.30
2022-11-21T18:32:51.435Z,7.20
2022-11-21T18:35:20.880Z,7.20
2022-11-21T18:37:48.928Z,7.20
2022-11-21T18:40:17.660Z,7.20
2022-11-21T18:42:46.964Z,7.30
2022-11-21T18:45:15.248Z,7.20
2022-11-21T18:47:43.382Z,7.20
2022-11-21T18:50:11.641Z,7.20
2022-11-21T18:52:46.445Z,7.20
2022-11-21T18:55:15.546Z,7.20
2022-11-21T18:57:43.807Z,7.30
2022-11-21T19:00:13.397Z,7.20
2022-11-21T19:02:41.431Z,7.20
2022-11-21T19:05:09.885Z,7.20
2022-11-21T19:07:37.985Z,7.20
2022-11-21T19:10:35.750Z,7.20
2022-11-21T19:12:57.280Z,7.20
2022-11-21T19:15:25.360Z,7.20
2022-11-21T19:17:53.372Z,7.20
2022-11-21T19:20:21.507Z,7.20
2022-11-21T19:22:49.591Z,7.20
2022-11-21T19:25:19.139Z,7.20
2022-11-21T19:27:50.140Z,7.20
2022-11-21T19:30:18.509Z,7.20
2022-11-21T19:32:46.547Z,7.20
2022-11-21T19:35:14.591Z,7.20
2022-11-21T19:37:42.634Z,7.20
2022-11-21T19:40:12.208Z,7.20
2022-11-21T19:42:42.052Z,7.10
2022-11-21T19:45:11.332Z,7.20
2022-11-21T19:47:39.416Z,7.20
2022-11-21T19:50:08.761Z,7.20
2022-11-21T19:52:37.189Z,7.20
2022-11-21T19:55:05.744Z,7.30
2022-11-21T19:57:36.776Z,7.30
2022-11-21T20:00:07.792Z,7.20
2022-11-21T20:02:37.845Z,7.30
2022-11-21T20:05:06.588Z,7.30
2022-11-21T20:07:35.149Z,7.20
2022-11-21T20:10:03.437Z,7.20
2022-11-21T20:12:32.328Z,7.10
2022-11-21T20:15:02.695Z,7.00
2022-11-21T20:17:36.561Z,7.00
2022-11-21T20:20:07.582Z,6.90
2022-11-21T20:22:37.505Z,7.00
2022-11-21T20:25:10.052Z,6.90
2022-11-21T20:27:41.013Z,6.90
2022-11-21T20:30:10.091Z,6.90
2022-11-21T20:32:41.435Z,6.90
2022-11-21T20:35:12.673Z,6.80
2022-11-21T20:37:41.271Z,6.90
2022-11-21T20:40:16.351Z,6.80
2022-11-21T20:42:46.412Z,6.90
2022-11-21T20:48:10.489Z,6.90
2022-11-21T20:51:34.949Z,7.00
2022-11-21T20:53:52.321Z,6.90
2022-11-21T20:56:17.894Z,6.80
2022-11-21T20:58:46.818Z,6.80
2022-11-21T21:01:17.075Z,6.90
2022-11-21T21:03:46.631Z,6.80
2022-11-21T21:06:16.231Z,6.80
2022-11-21T21:08:44.528Z,6.90
2022-11-21T21:11:36.743Z,6.90
2022-11-21T21:14:02.205Z,6.90
2022-11-21T21:16:30.620Z,7.00
2022-11-21T21:19:00.084Z,6.90
2022-11-21T21:21:30.554Z,6.90
2022-11-21T21:24:00.624Z,6.90
2022-11-21T21:26:32.733Z,6.90
2022-11-21T21:29:02.767Z,7.00
2022-11-21T21:31:31.634Z,7.00
2022-11-21T21:34:02.633Z,7.00
2022-11-21T21:36:32.081Z,7.10
2022-11-21T21:39:01.546Z,7.10
2022-11-21T21:41:32.943Z,7.10
2022-11-21T21:44:01.175Z,7.10
2022-11-21T21:46:29.458Z,7.10
2022-11-21T21:48:59.910Z,7.10
2022-11-21T21:51:29.745Z,7.10
2022-11-21T21:53:59.036Z,7.10
2022-11-21T21:56:28.703Z,7.10
2022-11-21T21:58:58.257Z,7.10
2022-11-21T22:01:28.545Z,7.10
2022-11-21T22:04:02.500Z,7.00
2022-11-21T22:06:33.761Z,7.00
2022-11-21T22:09:02.002Z,7.10
2022-11-21T22:11:31.742Z,7.00
2022-11-21T22:14:00.944Z,7.00
2022-11-21T22:16:29.384Z,7.00
2022-11-21T22:18:57.842Z,7.00
2022-11-21T22:21:29.000Z,7.00
2022-11-21T22:26:47.526Z,7.00
2022-11-21T22:29:15.562Z,7.00
2022-11-21T22:31:43.867Z,7.00
2022-11-21T22:34:13.904Z,6.90
2022-11-21T22:36:44.881Z,6.90
2022-11-21T22:39:12.991Z,6.90
2022-11-21T22:41:41.527Z,6.80
2022-11-21T22:44:09.862Z,6.90
2022-11-21T22:46:37.877Z,6.90
2022-11-21T22:49:05.907Z,6.80
2022-11-21T22:51:34.675Z,6.80
2022-11-21T22:54:04.134Z,6.80
2022-11-21T22:56:32.350Z,6.80
2022-11-21T22:59:00.430Z,6.80
2022-11-21T23:01:28.537Z,6.80
2022-11-21T23:03:56.922Z,6.80
2022-11-21T23:06:26.972Z,6.80
2022-11-21T23:08:56.426Z,6.80
2022-11-21T23:11:27.775Z,6.90
2022-11-21T23:13:57.072Z,6.90
2022-11-21T23:16:26.146Z,6.90
2022-11-21T23:18:57.404Z,7.00
2022-11-21T23:21:25.799Z,7.00
2022-11-21T23:23:54.076Z,7.10
2022-11-21T23:26:22.331Z,7.10
2022-11-21T23:28:51.865Z,7.20
2022-11-21T23:31:19.876Z,7.10
2022-11-21T23:33:47.959Z,7.20
2022-11-21T23:36:16.117Z,7.20
2022-11-21T23:38:44.233Z,7.20
2022-11-21T23:41:12.810Z,7.20
2022-11-21T23:43:40.872Z,7.10
2022-11-21T23:46:10.381Z,7.00
2022-11-21T23:48:38.457Z,7.00
2022-11-21T23:51:06.527Z,6.90
2022-11-21T23:53:34.620Z,6.90
2022-11-21T23:56:02.993Z,6.90
2022-11-21T23:58:31.418Z,6.90
